createdAt,value
2016-06-20T00:01:17.824Z,19.45
2016-06-20T00:02:17.953Z,19.38
2016-06-20T00:03:17.862Z,19.38
2016-06-20T00:04:17.865Z,19.47
2016-06-20T00:05:17.869Z,19.5
2016-06-20T00:06:17.904Z,19.43
2016-06-20T00:07:17.861Z,19.52
2016-06-20T00:08:17.926Z,19.49
2016-06-20T00:09:18.008Z,19.49
2016-06-20T00:10:17.933Z,19.5
2016-06-20T00:11:17.937Z,19.47
2016-06-20T00:12:17.893Z,19.4
2016-06-20T00:13:17.959Z,19.45
2016-06-20T00:14:17.963Z,19.37
2016-06-20T00:15:17.998Z,19.49
2016-06-20T00:16:17.861Z,19.35
2016-06-20T00:17:17.879Z,19.37
2016-06-20T00:18:17.899Z,19.35
2016-06-20T00:19:17.965Z,19.27
2016-06-20T00:20:17.968Z,19.25
2016-06-20T00:21:18.018Z,19.31
2016-06-20T00:22:17.897Z,19.17
2016-06-20T00:23:17.978Z,19.2
2016-06-20T00:24:17.935Z,19.25
2016-06-20T00:25:17.954Z,19.23
2016-06-20T00:26:18.020Z,19.2
2016-06-20T00:27:18.009Z,19.25
2016-06-20T00:28:17.949Z,19.2
2016-06-20T00:29:17.968Z,19.17
2016-06-20T00:30:17.955Z,19.16
2016-06-20T00:31:17.991Z,19.23
2016-06-20T00:32:17.870Z,19.24
2016-06-20T00:33:17.982Z,19.19
2016-06-20T00:34:17.954Z,19.24
2016-06-20T00:35:17.958Z,19.25
2016-06-20T00:36:17.993Z,19.16
2016-06-20T00:37:18.027Z,19.2
2016-06-20T00:38:18.015Z,19.28
2016-06-20T00:39:18.050Z,19.25
2016-06-20T00:40:17.959Z,19.2
2016-06-20T00:41:18.025Z,19.27
2016-06-20T00:42:17.982Z,19.19
2016-06-20T00:43:17.923Z,19.2
2016-06-20T00:44:18.067Z,19.12
2016-06-20T00:45:18.071Z,19.15
2016-06-20T00:46:18.090Z,19.16
2016-06-20T00:47:18.000Z,19.2
2016-06-20T00:48:18.003Z,19.23
2016-06-20T00:49:17.976Z,19.16
2016-06-20T00:50:17.962Z,19.15
2016-06-20T00:51:18.075Z,19.15
2016-06-20T00:52:18.016Z,19.1
2016-06-20T00:53:18.020Z,19.07
2016-06-20T00:54:18.132Z,19.15
2016-06-20T00:55:18.105Z,19.23
2016-06-20T00:56:18.030Z,19.05
2016-06-20T00:57:18.034Z,19.13
2016-06-20T00:58:18.131Z,19.12
2016-06-20T00:59:18.041Z,19.1
2016-06-20T01:00:18.076Z,19.09
2016-06-20T01:01:18.032Z,19.09
2016-06-20T01:02:17.957Z,19.12
2016-06-20T01:07:33.616Z,19.1
2016-06-20T01:12:05.739Z,18.94
2016-06-20T01:12:22.039Z,19.07
2016-06-20T01:13:22.058Z,19.02
2016-06-20T01:14:22.093Z,19.07
2016-06-20T01:15:22.112Z,19.07
2016-06-20T01:16:22.162Z,18.99
2016-06-20T01:17:22.103Z,19
2016-06-20T01:18:22.106Z,19.09
2016-06-20T01:19:22.141Z,19.06
2016-06-20T01:20:22.161Z,19.1
2016-06-20T01:21:22.148Z,19.09
2016-06-20T01:22:22.151Z,19.13
2016-06-20T01:23:22.139Z,19.1
2016-06-20T01:24:22.159Z,19.05
2016-06-20T01:25:22.162Z,19
2016-06-20T01:26:22.212Z,19.07
2016-06-20T01:27:22.044Z,19.05
2016-06-20T01:28:22.111Z,19.12
2016-06-20T01:29:22.082Z,19.09
2016-06-20T01:30:22.210Z,18.97
2016-06-20T01:31:22.152Z,18.94
2016-06-20T01:32:22.125Z,19.05
2016-06-20T01:33:22.081Z,18.97
2016-06-20T01:34:22.068Z,19.07
2016-06-20T01:35:22.087Z,19.09
2016-06-20T01:36:22.169Z,19.05
2016-06-20T01:37:22.126Z,19.06
2016-06-20T01:38:22.176Z,19.02
2016-06-20T01:39:22.195Z,18.99
2016-06-20T01:40:22.136Z,19
2016-06-20T01:41:22.201Z,19.09
2016-06-20T01:42:22.080Z,19.05
2016-06-20T01:43:22.365Z,18.94
2016-06-20T01:44:22.166Z,18.97
2016-06-20T01:45:22.122Z,19.07
2016-06-20T01:46:22.203Z,18.96
2016-06-20T01:47:22.222Z,19.09
2016-06-20T01:48:22.132Z,18.96
2016-06-20T01:49:22.198Z,18.91
2016-06-20T01:50:22.170Z,18.99
2016-06-20T01:51:22.221Z,18.97
2016-06-20T01:52:22.224Z,19.07
2016-06-20T01:53:22.212Z,19.05
2016-06-20T01:54:22.122Z,18.97
2016-06-20T01:55:22.125Z,18.96
2016-06-20T01:56:22.191Z,18.99
2016-06-20T01:57:22.132Z,18.91
2016-06-20T01:58:22.229Z,18.93
2016-06-20T01:59:22.202Z,19.02
2016-06-20T02:00:22.283Z,19.05
2016-06-20T02:01:22.255Z,18.96
2016-06-20T02:02:22.212Z,18.91
2016-06-20T02:03:22.215Z,18.96
2016-06-20T02:04:22.265Z,18.93
2016-06-20T02:05:22.269Z,19
2016-06-20T02:06:22.179Z,18.94
2016-06-20T02:07:22.229Z,18.97
2016-06-20T02:08:22.311Z,18.94
2016-06-20T02:09:22.205Z,18.89
2016-06-20T02:10:22.240Z,18.82
2016-06-20T02:11:22.290Z,18.79
2016-06-20T02:12:22.325Z,18.76
2016-06-20T02:13:22.219Z,18.87
2016-06-20T02:14:22.223Z,18.79
2016-06-20T02:15:22.273Z,18.86
2016-06-20T02:16:22.197Z,18.78
2016-06-20T02:17:22.170Z,18.82
2016-06-20T02:18:22.204Z,18.86
2016-06-20T02:19:22.239Z,18.86
2016-06-20T02:20:22.274Z,18.82
2016-06-20T02:21:22.277Z,18.84
2016-06-20T02:22:22.250Z,18.81
2016-06-20T02:23:22.285Z,18.76
2016-06-20T02:24:22.225Z,18.82
2016-06-20T02:25:22.291Z,18.81
2016-06-20T02:26:22.295Z,18.79
2016-06-20T02:27:22.267Z,18.76
2016-06-20T02:28:22.302Z,18.86
2016-06-20T02:29:22.275Z,18.78
2016-06-20T02:30:22.325Z,18.79
2016-06-20T02:31:22.312Z,18.79
2016-06-20T02:32:22.363Z,18.76
2016-06-20T02:33:22.288Z,18.78
2016-06-20T02:34:22.228Z,18.74
2016-06-20T02:35:22.326Z,18.79
2016-06-20T02:36:22.345Z,18.82
2016-06-20T02:37:22.192Z,18.75
2016-06-20T02:38:22.227Z,18.75
2016-06-20T02:39:22.230Z,18.76
2016-06-20T02:40:22.296Z,18.75
2016-06-20T02:41:22.347Z,18.84
2016-06-20T02:42:22.256Z,18.79
2016-06-20T02:43:22.323Z,18.74
2016-06-20T02:44:22.326Z,18.74
2016-06-20T02:45:22.330Z,18.72
2016-06-20T02:46:22.333Z,18.74
2016-06-20T02:47:22.336Z,18.74
2016-06-20T02:48:22.371Z,18.66
2016-06-20T02:49:22.375Z,18.69
2016-06-20T02:50:22.346Z,18.69
2016-06-20T02:51:22.272Z,18.63
2016-06-20T02:52:22.338Z,18.59
2016-06-20T02:53:22.279Z,18.6
2016-06-20T02:54:22.344Z,18.65
2016-06-20T02:55:22.317Z,18.6
2016-06-20T02:56:22.403Z,18.6
2016-06-20T02:57:22.321Z,18.57
2016-06-20T02:58:22.333Z,18.57
2016-06-20T02:59:22.376Z,18.57
2016-06-20T03:00:22.387Z,18.57
2016-06-20T03:01:22.272Z,18.6
2016-06-20T03:02:22.403Z,18.57
2016-06-20T03:03:22.332Z,18.56
2016-06-20T03:04:22.386Z,18.6
2016-06-20T03:05:22.423Z,18.63
2016-06-20T03:06:22.492Z,18.61
2016-06-20T03:07:22.465Z,18.56
2016-06-20T03:08:22.469Z,18.53
2016-06-20T03:09:22.458Z,18.49
2016-06-20T03:10:22.494Z,18.49
2016-06-20T03:11:22.451Z,18.53
2016-06-20T03:12:22.454Z,18.5
2016-06-20T03:13:22.459Z,18.41
2016-06-20T03:14:22.463Z,18.54
2016-06-20T03:15:22.451Z,18.54
2016-06-20T03:16:22.486Z,18.51
2016-06-20T03:17:22.396Z,18.51
2016-06-20T03:18:22.541Z,18.51
2016-06-20T03:19:22.513Z,18.44
2016-06-20T03:20:22.471Z,18.51
2016-06-20T03:21:22.489Z,18.49
2016-06-20T03:22:22.493Z,18.59
2016-06-20T03:23:22.496Z,18.59
2016-06-20T03:24:22.454Z,18.49
2016-06-20T03:25:22.457Z,18.53
2016-06-20T03:26:22.492Z,18.51
2016-06-20T03:27:22.510Z,18.51
2016-06-20T03:28:22.513Z,18.41
2016-06-20T03:29:22.439Z,18.49
2016-06-20T03:30:22.442Z,18.53
2016-06-20T03:31:22.445Z,18.47
2016-06-20T03:32:22.543Z,18.49
2016-06-20T03:33:22.406Z,18.42
2016-06-20T03:34:22.534Z,18.51
2016-06-20T03:35:22.506Z,18.57
2016-06-20T03:36:22.541Z,18.49
2016-06-20T03:37:22.357Z,18.45
2016-06-20T03:38:22.470Z,18.45
2016-06-20T03:39:22.506Z,18.51
2016-06-20T03:40:22.509Z,18.44
2016-06-20T03:41:22.513Z,18.47
2016-06-20T03:42:22.562Z,18.47
2016-06-20T03:43:22.487Z,18.45
2016-06-20T03:44:22.429Z,18.47
2016-06-20T03:45:22.573Z,18.49
2016-06-20T03:46:22.575Z,18.5
2016-06-20T03:47:22.501Z,18.49
2016-06-20T03:48:22.504Z,18.45
2016-06-20T03:49:22.508Z,18.47
2016-06-20T03:50:22.543Z,18.5
2016-06-20T03:51:22.515Z,18.49
2016-06-20T03:52:22.628Z,18.51
2016-06-20T03:53:22.460Z,18.56
2016-06-20T03:54:22.463Z,18.53
2016-06-20T03:55:22.451Z,18.59
2016-06-20T03:56:22.532Z,18.56
2016-06-20T03:57:22.583Z,18.53
2016-06-20T03:58:22.539Z,18.54
2016-06-20T03:59:22.403Z,18.56
2016-06-20T04:00:22.624Z,18.51
2016-06-20T04:01:22.596Z,18.56
2016-06-20T04:02:22.553Z,18.45
2016-06-20T04:03:22.525Z,18.54
2016-06-20T04:04:22.607Z,18.56
2016-06-20T04:05:22.641Z,18.54
2016-06-20T04:06:22.488Z,18.54
2016-06-20T04:07:22.570Z,18.54
2016-06-20T04:08:22.559Z,18.5
2016-06-20T04:09:22.624Z,18.57
2016-06-20T04:10:22.644Z,18.57
2016-06-20T04:11:22.647Z,18.56
2016-06-20T04:12:22.587Z,18.57
2016-06-20T04:13:22.591Z,18.57
2016-06-20T04:14:22.595Z,18.57
2016-06-20T04:15:22.583Z,18.61
2016-06-20T04:16:22.680Z,18.57
2016-06-20T04:17:22.496Z,18.6
2016-06-20T04:18:22.499Z,18.61
2016-06-20T04:19:22.644Z,18.59
2016-06-20T04:20:22.585Z,18.56
2016-06-20T04:21:22.587Z,18.6
2016-06-20T04:22:22.700Z,18.57
2016-06-20T04:23:22.563Z,18.65
2016-06-20T04:24:22.582Z,18.63
2016-06-20T04:25:22.570Z,18.66
2016-06-20T04:26:22.574Z,18.59
2016-06-20T04:27:22.608Z,18.54
2016-06-20T04:28:22.612Z,18.63
2016-06-20T04:29:22.584Z,18.6
2016-06-20T04:30:22.650Z,18.63
2016-06-20T04:31:22.654Z,18.6
2016-06-20T04:32:22.595Z,18.63
2016-06-20T04:33:22.598Z,18.63
2016-06-20T04:34:22.601Z,18.6
2016-06-20T04:35:22.636Z,18.57
2016-06-20T04:36:22.592Z,18.61
2016-06-20T04:37:22.565Z,18.69
2016-06-20T04:38:22.630Z,18.65
2016-06-20T04:39:22.681Z,18.69
2016-06-20T04:40:22.591Z,18.69
2016-06-20T04:41:22.657Z,18.69
2016-06-20T04:42:22.660Z,18.66
2016-06-20T04:43:22.633Z,18.68
2016-06-20T04:44:22.698Z,18.75
2016-06-20T04:45:22.734Z,18.66
2016-06-20T04:46:22.674Z,18.68
2016-06-20T04:47:22.709Z,18.74
2016-06-20T04:48:22.712Z,18.66
2016-06-20T04:49:22.590Z,18.71
2016-06-20T04:50:22.610Z,18.69
2016-06-20T04:51:22.442Z,18.66
2016-06-20T04:52:22.678Z,18.63
2016-06-20T04:53:22.651Z,18.65
2016-06-20T04:54:22.671Z,18.61
2016-06-20T04:55:22.689Z,18.59
2016-06-20T04:56:22.599Z,18.63
2016-06-20T04:57:22.603Z,18.69
2016-06-20T04:58:22.653Z,18.65
2016-06-20T04:59:22.688Z,18.69
2016-06-20T05:00:22.754Z,18.65
2016-06-20T05:01:22.726Z,18.66
2016-06-20T05:02:22.730Z,18.66
2016-06-20T05:03:22.702Z,18.68
2016-06-20T05:04:22.736Z,18.71
2016-06-20T05:05:22.662Z,18.71
2016-06-20T05:06:22.744Z,18.66
2016-06-20T05:07:22.778Z,18.71
2016-06-20T05:08:22.719Z,18.71
2016-06-20T05:09:22.738Z,18.69
2016-06-20T05:10:22.788Z,18.68
2016-06-20T05:11:22.698Z,18.71
2016-06-20T05:12:22.764Z,18.72
2016-06-20T05:13:22.751Z,18.72
2016-06-20T05:14:22.693Z,18.72
2016-06-20T05:15:22.665Z,18.71
2016-06-20T05:16:22.731Z,18.66
2016-06-20T05:17:22.813Z,18.69
2016-06-20T05:18:22.785Z,18.78
2016-06-20T05:19:22.757Z,18.69
2016-06-20T05:20:22.792Z,18.74
2016-06-20T05:21:22.701Z,18.74
2016-06-20T05:22:22.736Z,18.82
2016-06-20T05:23:22.771Z,18.74
2016-06-20T05:24:22.680Z,18.76
2016-06-20T05:25:22.700Z,18.76
2016-06-20T05:26:22.781Z,18.72
2016-06-20T05:27:22.785Z,18.74
2016-06-20T05:28:22.757Z,18.75
2016-06-20T05:29:22.714Z,18.81
2016-06-20T05:30:22.748Z,18.84
2016-06-20T05:31:22.768Z,18.75
2016-06-20T05:32:22.802Z,18.81
2016-06-20T05:33:22.805Z,18.78
2016-06-20T05:34:22.809Z,18.79
2016-06-20T05:35:22.766Z,18.82
2016-06-20T05:36:22.738Z,18.82
2016-06-20T05:37:22.742Z,18.87
2016-06-20T05:38:22.792Z,18.81
2016-06-20T05:39:22.732Z,18.78
2016-06-20T05:40:22.845Z,18.87
2016-06-20T05:41:22.723Z,18.81
2016-06-20T05:42:22.837Z,18.81
2016-06-20T05:43:22.793Z,18.9
2016-06-20T05:44:22.765Z,18.81
2016-06-20T05:45:22.800Z,18.84
2016-06-20T05:46:22.851Z,18.94
2016-06-20T05:47:22.854Z,18.82
2016-06-20T05:48:22.857Z,18.97
2016-06-20T05:49:22.783Z,18.82
2016-06-20T05:50:22.786Z,18.81
2016-06-20T05:51:22.743Z,18.79
2016-06-20T05:52:22.871Z,18.9
2016-06-20T05:53:22.797Z,18.99
2016-06-20T05:54:22.784Z,18.82
2016-06-20T05:55:22.835Z,18.96
2016-06-20T05:56:22.838Z,18.96
2016-06-20T05:57:22.778Z,18.93
2016-06-20T05:58:22.892Z,18.89
2016-06-20T05:59:22.848Z,18.89
2016-06-20T06:00:22.899Z,19.02
2016-06-20T06:01:22.793Z,19.02
2016-06-20T06:02:22.812Z,18.99
2016-06-20T06:03:22.831Z,18.94
2016-06-20T06:04:22.913Z,18.99
2016-06-20T06:05:22.885Z,18.97
2016-06-20T06:06:22.838Z,19.05
2016-06-20T06:07:22.732Z,18.91
2016-06-20T06:08:22.845Z,19.05
2016-06-20T06:09:22.880Z,19.07
2016-06-20T06:10:22.883Z,18.96
2016-06-20T06:11:22.902Z,19.07
2016-06-20T06:12:22.859Z,19
2016-06-20T06:13:22.971Z,19.12
2016-06-20T06:14:23.006Z,19.07
2016-06-20T06:15:22.853Z,19.13
2016-06-20T06:16:22.951Z,19.07
2016-06-20T06:17:22.799Z,19.1
2016-06-20T06:18:22.941Z,19.13
2016-06-20T06:19:22.884Z,19.05
2016-06-20T06:20:22.855Z,19.06
2016-06-20T06:21:22.890Z,19.12
2016-06-20T06:22:22.925Z,19.07
2016-06-20T06:23:22.928Z,19.09
2016-06-20T06:24:23.182Z,19.19
2016-06-20T06:25:22.872Z,19.25
2016-06-20T06:26:22.907Z,19.19
2016-06-20T06:27:22.864Z,19.24
2016-06-20T06:28:59.293Z,19.31
2016-06-20T06:29:23.355Z,19.27
2016-06-20T06:30:22.905Z,19.25
2016-06-20T06:31:22.893Z,19.3
2016-06-20T06:32:22.896Z,19.27
2016-06-20T06:33:22.869Z,19.34
2016-06-20T06:34:23.419Z,19.34
2016-06-20T06:35:22.938Z,19.25
2016-06-20T06:36:22.910Z,19.24
2016-06-20T06:37:22.867Z,19.28
2016-06-20T06:38:22.949Z,19.28
2016-06-20T06:39:23.045Z,19.19
2016-06-20T06:40:22.924Z,19.38
2016-06-20T06:45:38.117Z,19.37
2016-06-20T06:45:54.430Z,19.46
2016-06-20T06:46:54.511Z,19.43
2016-06-20T06:47:54.452Z,19.49
2016-06-20T06:48:54.377Z,19.37
2016-06-20T06:49:54.569Z,19.31
2016-06-20T06:50:54.462Z,19.32
2016-06-20T06:51:54.451Z,19.27
2016-06-20T06:52:54.469Z,19.25
2016-06-20T06:53:56.004Z,19.28
2016-06-20T06:54:54.398Z,19.17
2016-06-20T06:55:54.604Z,19.16
2016-06-20T06:56:54.515Z,19.25
2016-06-20T06:57:54.486Z,19.17
2016-06-20T06:58:54.600Z,19.17
2016-06-20T06:59:54.525Z,19.16
2016-06-20T07:00:54.591Z,19.09
2016-06-20T07:01:54.486Z,19.13
2016-06-20T07:02:54.582Z,19.12
2016-06-20T07:03:54.429Z,19.24
2016-06-20T07:04:54.574Z,19.24
2016-06-20T07:05:54.389Z,19.15
2016-06-20T07:06:54.549Z,19.25
2016-06-20T07:07:54.553Z,19.25
2016-06-20T07:08:54.525Z,19.25
2016-06-20T07:09:55.669Z,19.31
2016-06-20T07:10:54.531Z,19.32
2016-06-20T07:11:54.473Z,19.37
2016-06-20T07:12:54.429Z,19.37
2016-06-20T07:13:54.605Z,19.37
2016-06-20T07:14:54.499Z,19.43
2016-06-20T07:15:54.470Z,19.47
2016-06-20T07:16:54.521Z,19.4
2016-06-20T07:17:54.510Z,19.38
2016-06-20T07:18:54.528Z,19.38
2016-06-20T07:19:54.562Z,19.47
2016-06-20T07:20:54.676Z,19.42
2016-06-20T07:21:54.523Z,19.53
2016-06-20T07:22:54.542Z,19.47
2016-06-20T07:23:54.593Z,19.61
2016-06-20T07:24:54.517Z,19.6
2016-06-20T07:25:55.412Z,19.7
2016-06-20T07:26:54.540Z,19.71
2016-06-20T07:27:54.559Z,19.7
2016-06-20T07:28:54.532Z,19.72
2016-06-20T07:29:54.635Z,19.74
2016-06-20T07:30:54.614Z,19.79
2016-06-20T07:31:54.547Z,19.87
2016-06-20T07:32:54.590Z,19.93
2016-06-20T07:33:54.662Z,19.9
2016-06-20T07:34:54.685Z,20.04
2016-06-20T07:35:54.691Z,19.98
2016-06-20T07:36:54.664Z,20.08
2016-06-20T07:37:54.545Z,20.1
2016-06-20T07:38:54.583Z,20.1
2016-06-20T07:39:54.713Z,20.11
2016-06-20T07:40:54.483Z,20.15
2016-06-20T07:41:55.800Z,20.11
2016-06-20T07:42:54.648Z,20.18
2016-06-20T07:43:54.731Z,20.27
2016-06-20T07:44:54.672Z,20.27
2016-06-20T07:45:54.848Z,20.23
2016-06-20T07:46:54.695Z,20.32
2016-06-20T07:47:54.684Z,20.37
2016-06-20T07:48:54.687Z,20.32
2016-06-20T07:49:54.660Z,20.4
2016-06-20T07:50:54.617Z,20.46
2016-06-20T07:51:54.650Z,20.51
2016-06-20T07:52:54.687Z,20.41
2016-06-20T07:53:54.735Z,20.58
2016-06-20T07:54:54.739Z,20.57
2016-06-20T07:55:54.697Z,20.57
2016-06-20T07:56:54.700Z,20.64
2016-06-20T07:57:54.782Z,20.66
2016-06-20T07:58:54.753Z,20.66
2016-06-20T07:59:54.726Z,20.72
2016-06-20T08:00:54.729Z,20.68
2016-06-20T08:01:54.654Z,20.76
2016-06-20T08:02:54.721Z,20.75
2016-06-20T08:03:54.474Z,20.78
2016-06-20T08:04:54.696Z,20.86
2016-06-20T08:05:54.653Z,20.79
2016-06-20T08:06:54.781Z,20.83
2016-06-20T08:07:54.722Z,20.83
2016-06-20T08:08:54.710Z,20.94
2016-06-20T08:09:54.760Z,20.9
2016-06-20T08:10:54.827Z,20.94
2016-06-20T08:11:54.720Z,20.98
2016-06-20T08:12:54.786Z,20.98
2016-06-20T08:13:55.352Z,20.9
2016-06-20T08:14:54.730Z,20.97
2016-06-20T08:15:54.766Z,20.96
2016-06-20T08:16:54.785Z,20.94
2016-06-20T08:17:54.741Z,21
2016-06-20T08:18:54.791Z,21.01
2016-06-20T08:19:54.764Z,21.03
2016-06-20T08:20:54.798Z,21.11
2016-06-20T08:21:54.723Z,21.15
2016-06-20T08:22:54.758Z,21.09
2016-06-20T08:23:54.793Z,21.18
2016-06-20T08:24:54.734Z,21.06
2016-06-20T08:25:54.846Z,21.08
2016-06-20T08:26:54.804Z,21.08
2016-06-20T08:27:54.791Z,21.15
2016-06-20T08:28:54.700Z,21.21
2016-06-20T08:29:54.860Z,21.19
2016-06-20T08:30:54.739Z,21.19
2016-06-20T08:31:54.899Z,21.18
2016-06-20T08:32:54.761Z,21.15
2016-06-20T08:33:54.735Z,21.13
2016-06-20T08:34:54.738Z,21.16
2016-06-20T08:35:54.741Z,21.21
2016-06-20T08:36:54.775Z,21.16
2016-06-20T08:37:54.842Z,21.3
2016-06-20T08:38:54.860Z,21.25
2016-06-20T08:39:54.724Z,21.19
2016-06-20T08:40:54.790Z,21.23
2016-06-20T08:41:54.808Z,21.3
2016-06-20T08:42:54.796Z,21.38
2016-06-20T08:43:54.659Z,21.28
2016-06-20T08:44:54.850Z,21.33
2016-06-20T08:45:56.104Z,21.31
2016-06-20T08:46:54.826Z,21.33
2016-06-20T08:47:54.907Z,21.38
2016-06-20T08:48:54.848Z,21.36
2016-06-20T08:49:54.899Z,21.36
2016-06-20T08:50:54.824Z,21.36
2016-06-20T08:51:54.734Z,21.38
2016-06-20T08:52:54.831Z,21.4
2016-06-20T08:53:54.834Z,21.45
2016-06-20T08:54:54.838Z,21.41
2016-06-20T08:55:54.842Z,21.49
2016-06-20T08:56:54.861Z,21.45
2016-06-20T08:57:54.957Z,21.53
2016-06-20T08:58:54.852Z,21.59
2016-06-20T08:59:54.824Z,21.55
2016-06-20T09:00:54.858Z,21.58
2016-06-20T09:01:55.346Z,21.61
2016-06-20T09:02:54.975Z,21.67
2016-06-20T09:03:55.025Z,21.77
2016-06-20T09:04:54.873Z,21.76
2016-06-20T09:05:54.875Z,21.66
2016-06-20T09:06:54.911Z,21.7
2016-06-20T09:07:54.805Z,21.66
2016-06-20T09:08:54.902Z,21.76
2016-06-20T09:09:54.843Z,21.74
2016-06-20T09:10:54.863Z,21.77
2016-06-20T09:11:54.897Z,21.8
2016-06-20T09:12:54.901Z,21.85
2016-06-20T09:13:54.903Z,21.8
2016-06-20T09:14:54.876Z,21.77
2016-06-20T09:15:54.942Z,21.77
2016-06-20T09:16:54.883Z,21.85
2016-06-20T09:17:56.105Z,21.7
2016-06-20T09:18:54.905Z,21.71
2016-06-20T09:19:54.924Z,21.77
2016-06-20T09:20:54.897Z,21.82
2016-06-20T09:21:54.853Z,21.8
2016-06-20T09:22:54.904Z,21.86
2016-06-20T09:23:54.938Z,21.82
2016-06-20T09:24:54.832Z,21.82
2016-06-20T09:25:54.898Z,21.92
2016-06-20T09:26:54.902Z,21.85
2016-06-20T09:27:54.952Z,21.9
2016-06-20T09:28:54.861Z,22
2016-06-20T09:29:54.975Z,21.86
2016-06-20T09:30:54.993Z,21.94
2016-06-20T09:31:54.966Z,22.07
2016-06-20T09:32:54.908Z,22.05
2016-06-20T09:33:55.691Z,22.04
2016-06-20T09:34:54.929Z,22.14
2016-06-20T09:35:54.980Z,22.15
2016-06-20T09:36:54.889Z,22.16
2016-06-20T09:37:54.986Z,22.07
2016-06-20T09:38:54.959Z,22.11
2016-06-20T09:39:54.962Z,22.09
2016-06-20T09:40:54.950Z,22.16
2016-06-20T09:41:54.922Z,22.15
2016-06-20T09:42:54.957Z,22.24
2016-06-20T09:43:54.946Z,22.24
2016-06-20T09:44:54.949Z,22.18
2016-06-20T09:45:55.062Z,22.2
2016-06-20T09:46:54.971Z,22.26
2016-06-20T09:47:56.803Z,22.2
2016-06-20T09:48:54.947Z,22.22
2016-06-20T09:49:55.028Z,22.3
2016-06-20T09:50:55.031Z,22.22
2016-06-20T09:51:56.019Z,22.27
2016-06-20T09:52:54.929Z,22.27
2016-06-20T09:53:55.183Z,22.29
2016-06-20T09:54:55.029Z,22.29
2016-06-20T09:55:55.127Z,22.23
2016-06-20T09:56:54.974Z,22.33
2016-06-20T09:57:54.978Z,22.3
2016-06-20T09:58:55.168Z,22.26
2016-06-20T09:59:55.360Z,22.2
2016-06-20T10:00:55.113Z,22.31
2016-06-20T10:01:55.100Z,22.27
2016-06-20T10:02:55.057Z,22.29
2016-06-20T10:03:55.029Z,22.26
2016-06-20T10:04:54.971Z,22.24
2016-06-20T10:05:56.147Z,22.24
2016-06-20T10:06:54.978Z,22.29
2016-06-20T10:07:55.075Z,22.34
2016-06-20T10:08:55.047Z,22.36
2016-06-20T10:09:55.098Z,22.41
2016-06-20T10:10:55.023Z,22.41
2016-06-20T10:11:54.996Z,22.33
2016-06-20T10:12:54.999Z,22.44
2016-06-20T10:13:55.674Z,22.34
2016-06-20T10:14:54.973Z,22.44
2016-06-20T10:15:55.041Z,22.45
2016-06-20T10:16:55.138Z,22.52
2016-06-20T10:17:55.063Z,22.52
2016-06-20T10:18:55.098Z,22.6
2016-06-20T10:19:55.023Z,22.6
2016-06-20T10:20:55.104Z,22.6
2016-06-20T10:21:56.217Z,22.63
2016-06-20T10:22:55.002Z,22.73
2016-06-20T10:23:55.396Z,22.63
2016-06-20T10:24:55.008Z,22.75
2016-06-20T10:25:55.106Z,22.71
2016-06-20T10:26:54.953Z,22.69
2016-06-20T10:27:55.065Z,22.81
2016-06-20T10:28:55.038Z,22.86
2016-06-20T10:29:55.089Z,22.82
2016-06-20T10:30:55.092Z,22.91
2016-06-20T10:31:55.018Z,22.88
2016-06-20T10:32:55.130Z,22.96
2016-06-20T10:33:55.119Z,22.94
2016-06-20T10:34:55.028Z,22.92
2016-06-20T10:35:55.719Z,23.01
2016-06-20T10:36:55.129Z,23.1
2016-06-20T10:37:55.632Z,23.1
2016-06-20T10:38:55.214Z,23.06
2016-06-20T10:39:55.154Z,23.06
2016-06-20T10:40:55.095Z,22.96
2016-06-20T10:41:55.286Z,23.07
2016-06-20T10:42:55.087Z,23.01
2016-06-20T10:43:55.106Z,23.1
2016-06-20T10:44:55.109Z,23.01
2016-06-20T10:45:55.050Z,22.92
2016-06-20T10:46:55.164Z,22.89
2016-06-20T10:47:55.198Z,22.99
2016-06-20T10:48:54.811Z,22.89
2016-06-20T10:49:55.111Z,22.92
2016-06-20T10:50:55.193Z,22.86
2016-06-20T10:51:55.149Z,22.92
2016-06-20T10:52:55.043Z,22.97
2016-06-20T10:53:55.891Z,22.94
2016-06-20T10:54:55.050Z,22.84
2016-06-20T10:55:55.116Z,22.91
2016-06-20T10:56:55.088Z,22.99
2016-06-20T10:57:55.061Z,22.86
2016-06-20T10:58:55.033Z,22.82
2016-06-20T10:59:55.192Z,22.86
2016-06-20T11:00:55.118Z,22.99
2016-06-20T11:01:55.278Z,22.78
2016-06-20T11:02:55.031Z,22.78
2016-06-20T11:03:55.222Z,22.82
2016-06-20T11:04:55.147Z,22.91
2016-06-20T11:05:55.791Z,22.82
2016-06-20T11:06:55.154Z,22.81
2016-06-20T11:07:55.220Z,22.88
2016-06-20T11:08:55.239Z,22.84
2016-06-20T11:09:55.211Z,22.84
2016-06-20T11:10:55.200Z,22.78
2016-06-20T11:11:55.203Z,22.64
2016-06-20T11:12:55.268Z,22.79
2016-06-20T11:13:56.757Z,22.85
2016-06-20T11:14:55.181Z,22.84
2016-06-20T11:15:55.154Z,22.82
2016-06-20T11:16:55.221Z,22.79
2016-06-20T11:17:55.192Z,22.78
2016-06-20T11:18:55.117Z,22.86
2016-06-20T11:19:55.278Z,22.81
2016-06-20T11:20:55.281Z,22.71
2016-06-20T11:21:55.191Z,22.81
2016-06-20T11:22:55.178Z,22.81
2016-06-20T11:23:55.104Z,22.76
2016-06-20T11:24:55.076Z,22.81
2016-06-20T11:25:56.017Z,22.82
2016-06-20T11:26:55.098Z,22.91
2016-06-20T11:27:55.164Z,22.76
2016-06-20T11:28:55.246Z,22.89
2016-06-20T11:29:55.499Z,22.94
2016-06-20T11:30:55.316Z,22.84
2016-06-20T11:31:55.240Z,22.79
2016-06-20T11:32:55.337Z,22.82
2016-06-20T11:33:55.388Z,22.81
2016-06-20T11:34:55.250Z,22.73
2016-06-20T11:35:55.364Z,22.89
2016-06-20T11:36:55.212Z,22.73
2016-06-20T11:37:55.293Z,22.81
2016-06-20T11:38:55.296Z,22.78
2016-06-20T11:39:55.472Z,22.79
2016-06-20T11:40:55.662Z,22.7
2016-06-20T11:41:56.275Z,22.75
2016-06-20T11:42:55.201Z,22.73
2016-06-20T11:43:55.548Z,22.63
2016-06-20T11:44:55.973Z,22.78
2016-06-20T11:45:56.399Z,22.73
2016-06-20T11:46:55.386Z,22.64
2016-06-20T11:47:55.578Z,22.69
2016-06-20T11:48:55.518Z,22.63
2016-06-20T11:49:56.428Z,22.66
2016-06-20T11:50:55.228Z,22.66
2016-06-20T11:51:55.231Z,22.67
2016-06-20T11:52:55.234Z,22.67
2016-06-20T11:53:55.316Z,22.66
2016-06-20T11:54:55.524Z,22.66
2016-06-20T11:55:55.745Z,22.7
2016-06-20T11:56:55.281Z,22.67
2016-06-20T11:57:59.596Z,22.69
2016-06-20T12:11:24.967Z,22.67
2016-06-20T12:11:37.857Z,22.7
2016-06-20T12:12:42.706Z,22.73
2016-06-20T12:13:37.740Z,22.75
2016-06-20T12:14:38.057Z,22.79
2016-06-20T12:15:37.764Z,22.75
2016-06-20T12:16:37.986Z,22.75
2016-06-20T12:17:37.771Z,22.71
2016-06-20T12:18:37.805Z,22.79
2016-06-20T12:19:37.793Z,22.79
2016-06-20T12:20:37.844Z,22.89
2016-06-20T12:21:37.708Z,22.76
2016-06-20T12:22:37.789Z,22.76
2016-06-20T12:23:38.026Z,22.82
2016-06-20T12:24:37.796Z,22.88
2016-06-20T12:25:37.846Z,22.89
2016-06-20T12:26:37.739Z,22.81
2016-06-20T12:27:37.868Z,22.85
2016-06-20T12:28:37.824Z,22.75
2016-06-20T12:29:37.735Z,22.78
2016-06-20T12:30:37.691Z,22.89
2016-06-20T12:31:37.773Z,22.92
2016-06-20T12:32:38.682Z,22.89
2016-06-20T12:33:37.749Z,22.92
2016-06-20T12:34:37.783Z,22.94
2016-06-20T12:35:37.803Z,22.96
2016-06-20T12:36:37.853Z,22.92
2016-06-20T12:37:38.700Z,22.7
2016-06-20T12:38:38.547Z,22.91
2016-06-20T12:39:37.785Z,22.91
2016-06-20T12:40:37.804Z,23.01
2016-06-20T12:41:37.776Z,23
2016-06-20T12:42:38.029Z,22.97
2016-06-20T12:43:37.799Z,22.92
2016-06-20T12:44:38.052Z,23.03
2016-06-20T12:45:37.852Z,23.07
2016-06-20T12:46:37.824Z,23.07
2016-06-20T12:47:39.312Z,22.96
2016-06-20T12:48:37.941Z,23.07
2016-06-20T12:49:37.804Z,23.04
2016-06-20T12:50:37.916Z,23.07
2016-06-20T12:51:37.873Z,23.01
2016-06-20T12:52:37.846Z,23.01
2016-06-20T12:53:37.802Z,23.03
2016-06-20T12:54:37.805Z,23.1
2016-06-20T12:55:37.747Z,23.14
2016-06-20T12:56:37.796Z,23.1
2016-06-20T12:57:37.832Z,23.09
2016-06-20T12:58:37.835Z,23.14
2016-06-20T12:59:37.932Z,23.15
2016-06-20T13:00:37.779Z,23.12
2016-06-20T13:01:37.908Z,23.1
2016-06-20T13:02:37.864Z,23.18
2016-06-20T13:03:37.930Z,23.15
2016-06-20T13:04:37.824Z,23.19
2016-06-20T13:05:37.782Z,23.21
2016-06-20T13:06:37.894Z,23.19
2016-06-20T13:07:37.975Z,23.18
2016-06-20T13:08:37.932Z,23.18
2016-06-20T13:09:38.030Z,23.21
2016-06-20T13:10:37.955Z,23.16
2016-06-20T13:11:37.911Z,23.24
2016-06-20T13:12:37.836Z,23.25
2016-06-20T13:13:37.856Z,23.34
2016-06-20T13:14:37.922Z,23.29
2016-06-20T13:15:38.550Z,23.21
2016-06-20T13:16:37.928Z,23.26
2016-06-20T13:17:37.885Z,23.24
2016-06-20T13:18:37.827Z,23.28